sensor_id;sensor_type;location;lat;lon;timestamp;pressure;altitude;pressure_sealevel;temperature;humidity
63819;BME280;49970;54.976;73.248;2023-05-08T00:01:12;100274.00;;;15.67;45.77
63819;BME280;49970;54.976;73.248;2023-05-08T00:03:40;100272.19;;;15.77;45.53
63819;BME280;49970;54.976;73.248;2023-05-08T00:06:07;100286.06;;;15.90;45.08
63819;BME280;49970;54.976;73.248;2023-05-08T00:08:34;100294.03;;;16.00;44.80
63819;BME280;49970;54.976;73.248;2023-05-08T00:11:00;100287.84;;;16.09;44.61
63819;BME280;49970;54.976;73.248;2023-05-08T00:13:27;100274.19;;;16.12;44.87
63819;BME280;49970;54.976;73.248;2023-05-08T00:15:53;100278.25;;;16.16;44.90
63819;BME280;49970;54.976;73.248;2023-05-08T00:18:19;100284.97;;;16.21;44.49
63819;BME280;49970;54.976;73.248;2023-05-08T00:20:46;100286.53;;;16.23;44.74
63819;BME280;49970;54.976;73.248;2023-05-08T00:23:12;100308.03;;;16.31;44.98
63819;BME280;49970;54.976;73.248;2023-05-08T00:25:38;100287.19;;;16.35;45.29
63819;BME280;49970;54.976;73.248;2023-05-08T00:28:04;100291.09;;;16.40;44.85
63819;BME280;49970;54.976;73.248;2023-05-08T00:30:30;100288.69;;;16.47;44.63
63819;BME280;49970;54.976;73.248;2023-05-08T00:32:57;100284.44;;;16.54;44.48
63819;BME280;49970;54.976;73.248;2023-05-08T00:35:23;100286.81;;;16.57;44.56
63819;BME280;49970;54.976;73.248;2023-05-08T00:37:49;100304.19;;;16.71;44.65
63819;BME280;49970;54.976;73.248;2023-05-08T00:40:16;100288.25;;;16.79;44.88
63819;BME280;49970;54.976;73.248;2023-05-08T00:42:42;100292.88;;;16.87;44.37
63819;BME280;49970;54.976;73.248;2023-05-08T00:45:08;100293.13;;;16.93;44.40
63819;BME280;49970;54.976;73.248;2023-05-08T00:47:35;100286.16;;;17.01;44.04
63819;BME280;49970;54.976;73.248;2023-05-08T00:50:01;100299.63;;;17.09;44.18
63819;BME280;49970;54.976;73.248;2023-05-08T00:52:30;100287.72;;;17.21;44.05
63819;BME280;49970;54.976;73.248;2023-05-08T00:54:59;100292.31;;;17.29;44.20
63819;BME280;49970;54.976;73.248;2023-05-08T00:57:27;100290.41;;;17.39;43.65
63819;BME280;49970;54.976;73.248;2023-05-08T00:59:54;100294.28;;;17.45;43.58
63819;BME280;49970;54.976;73.248;2023-05-08T01:02:21;100303.06;;;17.55;43.79
63819;BME280;49970;54.976;73.248;2023-05-08T01:04:47;100294.09;;;17.64;43.71
63819;BME280;49970;54.976;73.248;2023-05-08T01:07:14;100313.94;;;17.71;43.49
63819;BME280;49970;54.976;73.248;2023-05-08T01:09:40;100304.84;;;17.82;43.33
63819;BME280;49970;54.976;73.248;2023-05-08T01:14:50;100312.53;;;18.29;43.13
63819;BME280;49970;54.976;73.248;2023-05-08T01:20:25;100309.22;;;19.11;41.65
63819;BME280;49970;54.976;73.248;2023-05-08T01:23:13;100312.13;;;19.51;41.56
63819;BME280;49970;54.976;73.248;2023-05-08T01:29:37;100303.50;;;20.29;40.40
63819;BME280;49970;54.976;73.248;2023-05-08T01:32:29;100305.13;;;20.62;40.09
63819;BME280;49970;54.976;73.248;2023-05-08T01:35:08;100316.97;;;20.84;39.54
63819;BME280;49970;54.976;73.248;2023-05-08T01:37:49;100314.00;;;21.02;39.70
63819;BME280;49970;54.976;73.248;2023-05-08T01:40:27;100305.22;;;21.08;39.27
63819;BME280;49970;54.976;73.248;2023-05-08T01:45:44;100321.41;;;21.31;38.96
63819;BME280;49970;54.976;73.248;2023-05-08T01:48:18;100306.38;;;21.45;38.97
63819;BME280;49970;54.976;73.248;2023-05-08T01:50:48;100319.03;;;21.59;38.70
63819;BME280;49970;54.976;73.248;2023-05-08T01:53:27;100315.47;;;21.67;38.59
63819;BME280;49970;54.976;73.248;2023-05-08T01:55:58;100318.69;;;21.62;38.56
63819;BME280;49970;54.976;73.248;2023-05-08T01:58:25;100325.75;;;21.63;38.40
63819;BME280;49970;54.976;73.248;2023-05-08T02:00:53;100328.38;;;21.72;38.12
63819;BME280;49970;54.976;73.248;2023-05-08T02:03:21;100327.84;;;21.76;38.12
63819;BME280;49970;54.976;73.248;2023-05-08T02:05:49;100318.91;;;21.76;38.17
63819;BME280;49970;54.976;73.248;2023-05-08T02:08:20;100334.34;;;21.82;37.76
63819;BME280;49970;54.976;73.248;2023-05-08T02:10:48;100343.94;;;21.84;38.08
63819;BME280;49970;54.976;73.248;2023-05-08T02:13:18;100339.03;;;21.88;38.10
63819;BME280;49970;54.976;73.248;2023-05-08T02:15:47;100348.25;;;21.94;38.03
63819;BME280;49970;54.976;73.248;2023-05-08T02:18:17;100337.22;;;22.03;37.87
63819;BME280;49970;54.976;73.248;2023-05-08T02:20:45;100334.75;;;21.94;37.92
63819;BME280;49970;54.976;73.248;2023-05-08T02:23:13;100339.25;;;22.01;37.64
63819;BME280;49970;54.976;73.248;2023-05-08T02:25:41;100354.53;;;21.86;37.78
63819;BME280;49970;54.976;73.248;2023-05-08T02:28:10;100346.28;;;21.64;38.05
63819;BME280;49970;54.976;73.248;2023-05-08T02:30:39;100346.91;;;21.52;38.16
63819;BME280;49970;54.976;73.248;2023-05-08T02:33:07;100344.56;;;21.49;38.38
63819;BME280;49970;54.976;73.248;2023-05-08T02:35:35;100345.47;;;21.41;38.50
63819;BME280;49970;54.976;73.248;2023-05-08T02:38:04;100340.09;;;21.41;38.52
63819;BME280;49970;54.976;73.248;2023-05-08T02:40:38;100350.19;;;21.39;38.57
63819;BME280;49970;54.976;73.248;2023-05-08T02:43:07;100349.06;;;21.33;38.62
63819;BME280;49970;54.976;73.248;2023-05-08T02:45:47;100355.56;;;21.39;39.04
63819;BME280;49970;54.976;73.248;2023-05-08T02:48:25;100355.47;;;21.55;39.19
63819;BME280;49970;54.976;73.248;2023-05-08T02:51:02;100357.25;;;21.63;38.70
63819;BME280;49970;54.976;73.248;2023-05-08T02:53:44;100359.66;;;21.58;38.75
63819;BME280;49970;54.976;73.248;2023-05-08T02:56:37;100360.94;;;21.70;38.68
63819;BME280;49970;54.976;73.248;2023-05-08T03:02:49;100370.00;;;21.69;39.05
63819;BME280;49970;54.976;73.248;2023-05-08T03:05:46;100365.16;;;21.64;39.19
63819;BME280;49970;54.976;73.248;2023-05-08T03:08:15;100371.03;;;21.45;39.75
63819;BME280;49970;54.976;73.248;2023-05-08T03:10:51;100358.94;;;21.41;40.00
63819;BME280;49970;54.976;73.248;2023-05-08T03:13:24;100363.34;;;21.57;39.92
63819;BME280;49970;54.976;73.248;2023-05-08T03:15:57;100361.63;;;21.64;40.06
63819;BME280;49970;54.976;73.248;2023-05-08T03:18:52;100357.84;;;21.73;39.78
63819;BME280;49970;54.976;73.248;2023-05-08T03:21:53;100358.09;;;21.86;39.91
63819;BME280;49970;54.976;73.248;2023-05-08T03:24:21;100355.06;;;22.04;39.55
63819;BME280;49970;54.976;73.248;2023-05-08T03:26:49;100366.94;;;22.18;39.75
63819;BME280;49970;54.976;73.248;2023-05-08T03:29:17;100360.53;;;22.19;39.46
63819;BME280;49970;54.976;73.248;2023-05-08T03:31:45;100359.97;;;22.24;39.32
63819;BME280;49970;54.976;73.248;2023-05-08T03:34:12;100360.91;;;22.16;39.30
63819;BME280;49970;54.976;73.248;2023-05-08T03:36:41;100357.97;;;21.80;39.82
63819;BME280;49970;54.976;73.248;2023-05-08T03:39:07;100364.94;;;21.74;40.06
63819;BME280;49970;54.976;73.248;2023-05-08T03:41:33;100363.59;;;21.93;39.83
63819;BME280;49970;54.976;73.248;2023-05-08T03:44:01;100383.19;;;22.10;39.93
63819;BME280;49970;54.976;73.248;2023-05-08T03:46:30;100376.38;;;21.99;39.86
63819;BME280;49970;54.976;73.248;2023-05-08T03:48:57;100378.59;;;21.96;39.86
63819;BME280;49970;54.976;73.248;2023-05-08T03:51:28;100373.41;;;21.86;40.04
63819;BME280;49970;54.976;73.248;2023-05-08T03:53:55;100369.00;;;21.93;39.88
63819;BME280;49970;54.976;73.248;2023-05-08T03:56:22;100379.06;;;21.99;40.26
63819;BME280;49970;54.976;73.248;2023-05-08T03:59:59;100378.53;;;22.04;40.43
63819;BME280;49970;54.976;73.248;2023-05-08T04:02:28;100359.44;;;21.91;40.16
63819;BME280;49970;54.976;73.248;2023-05-08T04:05:06;100386.84;;;21.94;40.41
63819;BME280;49970;54.976;73.248;2023-05-08T04:07:50;100375.47;;;21.84;40.53
63819;BME280;49970;54.976;73.248;2023-05-08T04:10:36;100380.03;;;21.83;40.75
63819;BME280;49970;54.976;73.248;2023-05-08T04:13:18;100383.38;;;21.85;41.07
63819;BME280;49970;54.976;73.248;2023-05-08T04:15:51;100392.59;;;21.68;41.44
63819;BME280;49970;54.976;73.248;2023-05-08T04:18:24;100392.38;;;21.55;42.02
63819;BME280;49970;54.976;73.248;2023-05-08T04:20:55;100391.63;;;21.30;42.35
63819;BME280;49970;54.976;73.248;2023-05-08T04:23:23;100405.81;;;21.24;42.64
63819;BME280;49970;54.976;73.248;2023-05-08T04:25:52;100398.78;;;21.14;43.04
63819;BME280;49970;54.976;73.248;2023-05-08T04:28:20;100405.56;;;21.02;43.61
63819;BME280;49970;54.976;73.248;2023-05-08T04:30:48;100395.34;;;20.89;43.75
63819;BME280;49970;54.976;73.248;2023-05-08T04:33:15;100413.34;;;20.89;44.01
63819;BME280;49970;54.976;73.248;2023-05-08T04:35:44;100415.91;;;20.82;44.21
63819;BME280;49970;54.976;73.248;2023-05-08T04:38:12;100414.75;;;20.77;44.69
63819;BME280;49970;54.976;73.248;2023-05-08T04:40:39;100409.38;;;20.69;44.78
63819;BME280;49970;54.976;73.248;2023-05-08T04:43:11;100409.25;;;20.54;45.41
63819;BME280;49970;54.976;73.248;2023-05-08T04:45:37;100411.06;;;20.70;45.36
63819;BME280;49970;54.976;73.248;2023-05-08T04:48:04;100412.53;;;20.80;45.33
63819;BME280;49970;54.976;73.248;2023-05-08T04:50:31;100417.25;;;20.86;44.83
63819;BME280;49970;54.976;73.248;2023-05-08T04:52:57;100429.00;;;20.85;44.75
63819;BME280;49970;54.976;73.248;2023-05-08T04:55:23;100424.63;;;20.93;44.58
63819;BME280;49970;54.976;73.248;2023-05-08T04:57:50;100424.59;;;21.01;44.68
63819;BME280;49970;54.976;73.248;2023-05-08T05:00:16;100423.69;;;21.17;44.16
63819;BME280;49970;54.976;73.248;2023-05-08T05:02:45;100427.19;;;21.33;44.36
63819;BME280;49970;54.976;73.248;2023-05-08T05:05:11;100425.16;;;21.27;43.59
63819;BME280;49970;54.976;73.248;2023-05-08T05:07:38;100429.13;;;21.08;43.43
63819;BME280;49970;54.976;73.248;2023-05-08T05:10:05;100435.94;;;20.72;43.91
63819;BME280;49970;54.976;73.248;2023-05-08T05:12:33;100442.19;;;20.64;44.00
63819;BME280;49970;54.976;73.248;2023-05-08T05:14:59;100434.81;;;20.66;44.11
63819;BME280;49970;54.976;73.248;2023-05-08T05:17:30;100433.78;;;20.67;44.03
63819;BME280;49970;54.976;73.248;2023-05-08T05:19:56;100439.16;;;20.75;44.18
63819;BME280;49970;54.976;73.248;2023-05-08T05:22:23;100439.50;;;20.64;44.11
63819;BME280;49970;54.976;73.248;2023-05-08T05:24:49;100445.25;;;20.53;44.05
63819;BME280;49970;54.976;73.248;2023-05-08T05:27:16;100432.28;;;20.32;44.01
63819;BME280;49970;54.976;73.248;2023-05-08T05:29:42;100447.94;;;20.28;44.24
63819;BME280;49970;54.976;73.248;2023-05-08T05:32:09;100449.41;;;20.39;44.09
63819;BME280;49970;54.976;73.248;2023-05-08T05:34:37;100451.97;;;20.40;43.71
63819;BME280;49970;54.976;73.248;2023-05-08T05:37:03;100442.06;;;20.57;43.75
63819;BME280;49970;54.976;73.248;2023-05-08T05:39:30;100445.03;;;20.79;43.49
63819;BME280;49970;54.976;73.248;2023-05-08T05:41:56;100453.28;;;20.69;43.53
63819;BME280;49970;54.976;73.248;2023-05-08T05:44:22;100456.34;;;20.66;43.31
63819;BME280;49970;54.976;73.248;2023-05-08T05:46:48;100466.09;;;20.59;43.33
63819;BME280;49970;54.976;73.248;2023-05-08T05:49:16;100453.47;;;20.35;43.55
63819;BME280;49970;54.976;73.248;2023-05-08T05:51:43;100458.38;;;20.23;43.67
63819;BME280;49970;54.976;73.248;2023-05-08T05:54:09;100459.34;;;20.06;43.78
63819;BME280;49970;54.976;73.248;2023-05-08T05:56:35;100458.69;;;20.04;44.04
63819;BME280;49970;54.976;73.248;2023-05-08T05:59:02;100458.00;;;20.18;44.22
63819;BME280;49970;54.976;73.248;2023-05-08T06:01:30;100465.09;;;20.19;43.84
63819;BME280;49970;54.976;73.248;2023-05-08T06:03:56;100467.25;;;20.07;43.95
63819;BME280;49970;54.976;73.248;2023-05-08T06:06:22;100470.94;;;19.98;44.00
63819;BME280;49970;54.976;73.248;2023-05-08T06:08:49;100471.09;;;19.88;43.80
63819;BME280;49970;54.976;73.248;2023-05-08T06:11:16;100473.94;;;19.87;43.99
63819;BME280;49970;54.976;73.248;2023-05-08T06:13:42;100473.09;;;19.86;43.94
63819;BME280;49970;54.976;73.248;2023-05-08T06:16:09;100472.75;;;19.89;43.87
63819;BME280;49970;54.976;73.248;2023-05-08T06:18:35;100466.41;;;19.90;43.65
63819;BME280;49970;54.976;73.248;2023-05-08T06:21:02;100477.81;;;19.93;43.67
63819;BME280;49970;54.976;73.248;2023-05-08T06:23:28;100478.81;;;19.92;43.47
63819;BME280;49970;54.976;73.248;2023-05-08T06:25:55;100485.88;;;19.93;43.91
63819;BME280;49970;54.976;73.248;2023-05-08T06:28:21;100485.75;;;20.02;43.39
63819;BME280;49970;54.976;73.248;2023-05-08T06:30:49;100482.69;;;20.05;43.50
63819;BME280;49970;54.976;73.248;2023-05-08T06:33:15;100474.50;;;20.15;43.43
63819;BME280;49970;54.976;73.248;2023-05-08T06:35:45;100476.00;;;20.26;42.99
63819;BME280;49970;54.976;73.248;2023-05-08T06:38:12;100472.47;;;20.33;43.08
63819;BME280;49970;54.976;73.248;2023-05-08T06:40:42;100472.28;;;20.35;43.42
63819;BME280;49970;54.976;73.248;2023-05-08T06:43:11;100476.50;;;20.46;43.21
63819;BME280;49970;54.976;73.248;2023-05-08T06:45:38;100471.47;;;20.59;42.82
63819;BME280;49970;54.976;73.248;2023-05-08T06:48:04;100466.41;;;20.48;42.91
63819;BME280;49970;54.976;73.248;2023-05-08T06:50:31;100467.41;;;20.38;43.06
63819;BME280;49970;54.976;73.248;2023-05-08T06:52:57;100461.72;;;20.50;43.44
63819;BME280;49970;54.976;73.248;2023-05-08T06:55:24;100452.97;;;20.64;43.38
63819;BME280;49970;54.976;73.248;2023-05-08T06:57:51;100459.31;;;20.79;43.28
63819;BME280;49970;54.976;73.248;2023-05-08T07:00:17;100456.28;;;20.91;43.12
63819;BME280;49970;54.976;73.248;2023-05-08T07:02:44;100455.81;;;20.79;43.31
63819;BME280;49970;54.976;73.248;2023-05-08T07:05:10;100456.81;;;20.86;43.75
63819;BME280;49970;54.976;73.248;2023-05-08T07:07:36;100454.56;;;20.98;43.64
63819;BME280;49970;54.976;73.248;2023-05-08T07:10:03;100451.53;;;21.01;43.08
63819;BME280;49970;54.976;73.248;2023-05-08T07:12:29;100464.34;;;20.99;43.19
63819;BME280;49970;54.976;73.248;2023-05-08T07:14:55;100439.59;;;20.95;43.33
63819;BME280;49970;54.976;73.248;2023-05-08T07:17:21;100458.06;;;21.06;42.70
63819;BME280;49970;54.976;73.248;2023-05-08T07:19:51;100444.47;;;21.00;43.11
63819;BME280;49970;54.976;73.248;2023-05-08T07:22:17;100451.50;;;21.09;42.76
63819;BME280;49970;54.976;73.248;2023-05-08T07:24:44;100453.56;;;20.99;42.47
63819;BME280;49970;54.976;73.248;2023-05-08T07:27:10;100458.97;;;20.91;43.20
63819;BME280;49970;54.976;73.248;2023-05-08T07:29:39;100439.41;;;20.97;43.04
63819;BME280;49970;54.976;73.248;2023-05-08T07:32:06;100448.97;;;21.16;43.02
63819;BME280;49970;54.976;73.248;2023-05-08T07:34:33;100445.91;;;21.19;43.29
63819;BME280;49970;54.976;73.248;2023-05-08T07:36:59;100454.78;;;21.35;42.89
63819;BME280;49970;54.976;73.248;2023-05-08T07:39:26;100450.03;;;21.46;42.38
63819;BME280;49970;54.976;73.248;2023-05-08T07:41:52;100466.53;;;21.43;42.43
63819;BME280;49970;54.976;73.248;2023-05-08T07:44:18;100459.28;;;21.43;42.56
63819;BME280;49970;54.976;73.248;2023-05-08T07:46:44;100452.31;;;21.57;42.55
63819;BME280;49970;54.976;73.248;2023-05-08T07:49:11;100461.81;;;21.76;41.91
63819;BME280;49970;54.976;73.248;2023-05-08T07:51:37;100462.91;;;21.89;41.26
63819;BME280;49970;54.976;73.248;2023-05-08T07:54:05;100458.00;;;21.93;41.53
63819;BME280;49970;54.976;73.248;2023-05-08T07:56:32;100459.94;;;22.07;41.28
63819;BME280;49970;54.976;73.248;2023-05-08T07:58:58;100471.34;;;22.18;40.97
63819;BME280;49970;54.976;73.248;2023-05-08T08:01:24;100469.13;;;22.21;40.97
63819;BME280;49970;54.976;73.248;2023-05-08T08:03:50;100462.59;;;22.16;40.81
63819;BME280;49970;54.976;73.248;2023-05-08T08:06:19;100462.94;;;22.12;40.58
63819;BME280;49970;54.976;73.248;2023-05-08T08:08:45;100469.19;;;22.13;40.97
63819;BME280;49970;54.976;73.248;2023-05-08T08:11:11;100472.00;;;22.20;40.34
63819;BME280;49970;54.976;73.248;2023-05-08T08:13:38;100472.72;;;22.13;40.33
63819;BME280;49970;54.976;73.248;2023-05-08T08:16:05;100464.91;;;21.96;40.77
63819;BME280;49970;54.976;73.248;2023-05-08T08:18:34;100454.56;;;21.76;41.68
63819;BME280;49970;54.976;73.248;2023-05-08T08:21:05;100465.34;;;21.76;41.36
63819;BME280;49970;54.976;73.248;2023-05-08T08:23:31;100464.84;;;21.73;41.33
63819;BME280;49970;54.976;73.248;2023-05-08T08:25:58;100469.38;;;21.80;40.90
63819;BME280;49970;54.976;73.248;2023-05-08T08:28:24;100462.41;;;21.86;40.59
63819;BME280;49970;54.976;73.248;2023-05-08T08:30:50;100461.53;;;21.94;40.49
63819;BME280;49970;54.976;73.248;2023-05-08T08:33:17;100462.75;;;21.91;40.60
63819;BME280;49970;54.976;73.248;2023-05-08T08:35:43;100467.94;;;21.93;40.29
63819;BME280;49970;54.976;73.248;2023-05-08T08:38:09;100465.53;;;21.98;40.57
63819;BME280;49970;54.976;73.248;2023-05-08T08:40:42;100462.97;;;22.04;41.04
63819;BME280;49970;54.976;73.248;2023-05-08T08:43:17;100467.53;;;22.04;40.91
63819;BME280;49970;54.976;73.248;2023-05-08T08:45:43;100469.69;;;22.08;40.58
63819;BME280;49970;54.976;73.248;2023-05-08T08:48:10;100459.50;;;21.96;40.65
63819;BME280;49970;54.976;73.248;2023-05-08T08:50:41;100473.19;;;21.86;40.48
63819;BME280;49970;54.976;73.248;2023-05-08T08:53:25;100460.75;;;21.85;40.65
63819;BME280;49970;54.976;73.248;2023-05-08T08:55:54;100461.84;;;21.99;40.57
63819;BME280;49970;54.976;73.248;2023-05-08T09:00:53;100475.09;;;22.08;40.71
63819;BME280;49970;54.976;73.248;2023-05-08T09:03:21;100467.94;;;21.93;40.28
63819;BME280;49970;54.976;73.248;2023-05-08T09:05:47;100475.44;;;21.82;40.31
63819;BME280;49970;54.976;73.248;2023-05-08T09:08:17;100478.72;;;21.70;40.54
63819;BME280;49970;54.976;73.248;2023-05-08T09:10:45;100471.47;;;21.70;40.09
63819;BME280;49970;54.976;73.248;2023-05-08T09:13:11;100476.22;;;21.60;40.03
63819;BME280;49970;54.976;73.248;2023-05-08T09:15:38;100473.22;;;21.55;40.01
63819;BME280;49970;54.976;73.248;2023-05-08T09:18:05;100465.38;;;21.45;40.20
63819;BME280;49970;54.976;73.248;2023-05-08T09:20:32;100471.28;;;21.41;40.48
63819;BME280;49970;54.976;73.248;2023-05-08T09:23:00;100468.22;;;21.44;40.41
63819;BME280;49970;54.976;73.248;2023-05-08T09:25:46;100464.03;;;21.41;40.52
63819;BME280;49970;54.976;73.248;2023-05-08T09:28:22;100461.13;;;21.51;40.42
63819;BME280;49970;54.976;73.248;2023-05-08T09:30:53;100462.88;;;21.67;40.40
63819;BME280;49970;54.976;73.248;2023-05-08T09:33:21;100468.72;;;21.78;39.63
63819;BME280;49970;54.976;73.248;2023-05-08T09:35:47;100467.50;;;21.81;39.13
63819;BME280;49970;54.976;73.248;2023-05-08T09:38:30;100461.91;;;21.91;38.83
63819;BME280;49970;54.976;73.248;2023-05-08T09:44:03;100468.00;;;21.84;39.12
63819;BME280;49970;54.976;73.248;2023-05-08T09:46:30;100479.91;;;21.90;39.17
63819;BME280;49970;54.976;73.248;2023-05-08T09:49:00;100476.03;;;21.93;38.96
63819;BME280;49970;54.976;73.248;2023-05-08T09:51:29;100468.63;;;21.95;38.80
63819;BME280;49970;54.976;73.248;2023-05-08T09:53:57;100480.16;;;21.80;38.26
63819;BME280;49970;54.976;73.248;2023-05-08T09:56:35;100468.13;;;21.60;38.48
63819;BME280;49970;54.976;73.248;2023-05-08T10:01:48;100469.34;;;21.57;38.30
63819;BME280;49970;54.976;73.248;2023-05-08T10:04:14;100475.81;;;21.40;37.89
63819;BME280;49970;54.976;73.248;2023-05-08T10:06:40;100476.72;;;21.32;38.41
63819;BME280;49970;54.976;73.248;2023-05-08T10:09:13;100487.44;;;21.41;38.73
63819;BME280;49970;54.976;73.248;2023-05-08T10:11:41;100478.97;;;21.52;38.32
63819;BME280;49970;54.976;73.248;2023-05-08T10:14:07;100471.50;;;21.62;38.21
63819;BME280;49970;54.976;73.248;2023-05-08T10:16:38;100479.09;;;21.58;37.49
63819;BME280;49970;54.976;73.248;2023-05-08T10:19:14;100473.06;;;21.48;37.08
63819;BME280;49970;54.976;73.248;2023-05-08T10:21:53;100475.66;;;21.42;36.94
63819;BME280;49970;54.976;73.248;2023-05-08T10:24:26;100474.47;;;21.36;37.23
63819;BME280;49970;54.976;73.248;2023-05-08T10:27:04;100468.41;;;21.42;36.90
63819;BME280;49970;54.976;73.248;2023-05-08T10:29:41;100472.47;;;21.38;36.75
63819;BME280;49970;54.976;73.248;2023-05-08T10:32:14;100471.94;;;21.43;37.13
63819;BME280;49970;54.976;73.248;2023-05-08T10:34:43;100466.22;;;21.37;36.69
63819;BME280;49970;54.976;73.248;2023-05-08T10:37:11;100486.09;;;21.45;36.65
63819;BME280;49970;54.976;73.248;2023-05-08T10:39:39;100479.34;;;21.49;36.23
63819;BME280;49970;54.976;73.248;2023-05-08T10:42:06;100478.31;;;21.50;34.22
63819;BME280;49970;54.976;73.248;2023-05-08T10:44:33;100468.44;;;21.34;33.21
63819;BME280;49970;54.976;73.248;2023-05-08T10:55:35;100482.72;;;21.43;32.06
63819;BME280;49970;54.976;73.248;2023-05-08T10:58:08;100483.03;;;21.48;31.19
63819;BME280;49970;54.976;73.248;2023-05-08T11:03:22;100487.53;;;21.55;30.17
63819;BME280;49970;54.976;73.248;2023-05-08T11:05:51;100475.78;;;21.48;30.10
63819;BME280;49970;54.976;73.248;2023-05-08T11:08:19;100472.72;;;21.51;30.07
63819;BME280;49970;54.976;73.248;2023-05-08T11:10:51;100480.66;;;21.53;29.55
63819;BME280;49970;54.976;73.248;2023-05-08T11:19:25;100459.34;;;21.27;29.08
63819;BME280;49970;54.976;73.248;2023-05-08T11:22:11;100494.72;;;21.32;28.90
63819;BME280;49970;54.976;73.248;2023-05-08T11:30:34;100498.91;;;21.26;28.32
63819;BME280;49970;54.976;73.248;2023-05-08T11:35:47;100499.09;;;21.25;28.31
63819;BME280;49970;54.976;73.248;2023-05-08T11:38:35;100500.75;;;21.26;28.19
63819;BME280;49970;54.976;73.248;2023-05-08T11:41:18;100509.22;;;21.14;29.22
63819;BME280;49970;54.976;73.248;2023-05-08T11:44:09;100498.88;;;20.87;29.94
63819;BME280;49970;54.976;73.248;2023-05-08T11:46:53;100507.09;;;20.77;30.29
63819;BME280;49970;54.976;73.248;2023-05-08T11:49:24;100500.38;;;20.73;30.13
63819;BME280;49970;54.976;73.248;2023-05-08T11:51:52;100494.16;;;20.64;30.64
63819;BME280;49970;54.976;73.248;2023-05-08T11:54:21;100507.16;;;20.61;30.29
63819;BME280;49970;54.976;73.248;2023-05-08T11:56:50;100512.13;;;20.48;30.11
63819;BME280;49970;54.976;73.248;2023-05-08T11:59:19;100508.59;;;20.47;30.44
63819;BME280;49970;54.976;73.248;2023-05-08T12:01:49;100509.63;;;20.46;29.21
63819;BME280;49970;54.976;73.248;2023-05-08T12:04:16;100511.16;;;20.40;28.90
63819;BME280;49970;54.976;73.248;2023-05-08T12:06:42;100518.53;;;20.47;28.77
63819;BME280;49970;54.976;73.248;2023-05-08T12:09:12;100512.66;;;20.43;28.96
63819;BME280;49970;54.976;73.248;2023-05-08T12:11:56;100510.78;;;20.35;28.61
63819;BME280;49970;54.976;73.248;2023-05-08T12:14:23;100520.06;;;20.41;28.87
63819;BME280;49970;54.976;73.248;2023-05-08T12:16:49;100522.91;;;20.48;29.01
63819;BME280;49970;54.976;73.248;2023-05-08T12:19:16;100517.41;;;20.49;29.01
63819;BME280;49970;54.976;73.248;2023-05-08T12:21:46;100517.69;;;20.46;28.88
63819;BME280;49970;54.976;73.248;2023-05-08T12:24:15;100522.41;;;20.36;29.13
63819;BME280;49970;54.976;73.248;2023-05-08T12:26:43;100517.16;;;20.18;29.23
63819;BME280;49970;54.976;73.248;2023-05-08T12:29:11;100514.31;;;20.03;29.35
63819;BME280;49970;54.976;73.248;2023-05-08T12:31:37;100507.91;;;19.96;29.67
63819;BME280;49970;54.976;73.248;2023-05-08T12:34:04;100516.13;;;19.95;29.71
63819;BME280;49970;54.976;73.248;2023-05-08T12:36:34;100520.50;;;19.96;29.78
63819;BME280;49970;54.976;73.248;2023-05-08T12:39:15;100511.75;;;19.94;29.73
63819;BME280;49970;54.976;73.248;2023-05-08T12:41:45;100523.50;;;19.93;29.68
63819;BME280;49970;54.976;73.248;2023-05-08T12:44:22;100527.84;;;19.85;29.81
63819;BME280;49970;54.976;73.248;2023-05-08T12:46:51;100510.19;;;19.67;29.25
63819;BME280;49970;54.976;73.248;2023-05-08T12:49:28;100520.75;;;19.68;29.36
63819;BME280;49970;54.976;73.248;2023-05-08T12:52:06;100511.28;;;19.56;29.22
63819;BME280;49970;54.976;73.248;2023-05-08T12:54:36;100517.78;;;19.45;29.57
63819;BME280;49970;54.976;73.248;2023-05-08T12:57:10;100518.28;;;19.40;29.70
63819;BME280;49970;54.976;73.248;2023-05-08T12:59:36;100522.81;;;19.40;29.83
63819;BME280;49970;54.976;73.248;2023-05-08T13:02:03;100535.84;;;19.35;29.48
63819;BME280;49970;54.976;73.248;2023-05-08T13:04:29;100530.78;;;19.24;29.87
63819;BME280;49970;54.976;73.248;2023-05-08T13:07:01;100529.56;;;19.18;29.80
63819;BME280;49970;54.976;73.248;2023-05-08T13:09:27;100535.63;;;19.20;30.02
63819;BME280;49970;54.976;73.248;2023-05-08T13:11:53;100526.03;;;19.17;30.42
63819;BME280;49970;54.976;73.248;2023-05-08T13:14:19;100529.06;;;19.23;29.78
63819;BME280;49970;54.976;73.248;2023-05-08T13:16:46;100527.75;;;19.27;30.25
63819;BME280;49970;54.976;73.248;2023-05-08T13:19:13;100529.34;;;19.37;29.82
63819;BME280;49970;54.976;73.248;2023-05-08T13:21:41;100538.06;;;19.31;29.54
63819;BME280;49970;54.976;73.248;2023-05-08T13:24:09;100538.19;;;19.30;29.75
63819;BME280;49970;54.976;73.248;2023-05-08T13:26:35;100536.69;;;19.27;29.60
63819;BME280;49970;54.976;73.248;2023-05-08T13:29:01;100529.78;;;19.25;29.65
63819;BME280;49970;54.976;73.248;2023-05-08T13:31:28;100526.03;;;19.17;29.69
63819;BME280;49970;54.976;73.248;2023-05-08T13:33:54;100534.09;;;19.17;29.55
63819;BME280;49970;54.976;73.248;2023-05-08T13:36:20;100535.78;;;19.19;29.85
63819;BME280;49970;54.976;73.248;2023-05-08T13:38:48;100526.88;;;19.18;29.63
63819;BME280;49970;54.976;73.248;2023-05-08T13:41:16;100532.59;;;19.15;30.01
63819;BME280;49970;54.976;73.248;2023-05-08T13:43:42;100533.50;;;19.06;29.78